Time;durP1;ratioP1;P1;durP2;ratioP2;P2;SDS_P1;SDS_P2;PMS_P1;PMS_P2;Temp;Humidity;BMP_temperature;BMP_pressure;BME280_temperature;BME280_humidity;BME280_pressure;Samples;Min_cycle;Max_cycle;Signal;HPM_P1;HPM_P2
2024/01/11 00:02:17;;;;;;;;;53.33;46.67;;;;;-146.67;100.00;57155.34;5050908;28;62048;-79
2024/01/11 00:04:43;;;;;;;;;56.00;41.33;;;;;-146.67;100.00;57155.34;5059530;28;64818;-79
2024/01/11 00:07:09;;;;;;;;;50.67;41.00;;;;;-146.67;100.00;57155.34;5061528;28;62074;-79
2024/01/11 00:09:41;;;;;;;;;58.00;39.33;;;;;-146.67;100.00;57155.34;5061685;28;61972;-79
2024/01/11 00:12:07;;;;;;;;;67.67;46.00;;;;;-146.67;100.00;57155.34;5061579;28;62010;-79
2024/01/11 00:14:33;;;;;;;;;52.00;44.33;;;;;-146.67;100.00;57155.34;5061116;28;61904;-78
2024/01/11 00:16:58;;;;;;;;;56.67;37.67;;;;;-146.67;100.00;57155.34;5061334;28;62402;-79
2024/01/11 00:19:23;;;;;;;;;51.00;42.00;;;;;-146.67;100.00;57155.34;5061587;28;62361;-79
2024/01/11 00:21:49;;;;;;;;;67.00;50.67;;;;;-146.67;100.00;57155.34;5061672;28;62328;-80
2024/01/11 00:24:14;;;;;;;;;60.67;45.00;;;;;-146.67;100.00;57155.34;5060546;28;61959;-80
2024/01/11 00:26:41;;;;;;;;;66.67;45.33;;;;;-146.67;100.00;57155.34;5061191;28;61821;-80
2024/01/11 00:29:07;;;;;;;;;71.00;48.33;;;;;-146.67;100.00;57155.34;5061719;28;61909;-79
2024/01/11 00:31:32;;;;;;;;;70.33;46.67;;;;;-146.67;100.00;57155.34;5042994;28;61951;-80
2024/01/11 00:33:58;;;;;;;;;61.00;46.67;;;;;-146.67;100.00;57155.34;5060398;28;62954;-80
2024/01/11 00:36:23;;;;;;;;;52.00;36.00;;;;;-146.67;100.00;57155.34;5061234;28;61827;-79
2024/01/11 00:38:49;;;;;;;;;57.67;48.00;;;;;-146.67;100.00;57155.34;5060778;28;61797;-78
2024/01/11 00:41:14;;;;;;;;;50.00;42.67;;;;;-146.67;100.00;57155.34;5043046;28;61964;-80
2024/01/11 00:43:40;;;;;;;;;44.67;34.33;;;;;-146.67;100.00;57155.34;5059548;28;64931;-79
2024/01/11 00:46:05;;;;;;;;;53.67;39.00;;;;;-146.67;100.00;57155.34;5061059;28;62008;-80
2024/01/11 00:48:31;;;;;;;;;53.33;39.67;;;;;-146.67;100.00;57155.34;5061024;28;62134;-80
2024/01/11 00:50:56;;;;;;;;;59.33;43.67;;;;;-146.67;100.00;57155.34;5043109;28;62210;-80
2024/01/11 00:53:21;;;;;;;;;60.33;48.00;;;;;-146.67;100.00;57155.34;5060119;28;61813;-80
2024/01/11 00:55:47;;;;;;;;;51.33;43.67;;;;;-146.67;100.00;57155.34;5061053;28;62049;-80
2024/01/11 00:58:12;;;;;;;;;44.33;35.00;;;;;-146.67;100.00;57155.34;5061431;28;61767;-80
2024/01/11 01:00:37;;;;;;;;;55.67;42.33;;;;;-146.67;100.00;57155.34;5060678;28;61751;-80
2024/01/11 01:03:03;;;;;;;;;59.00;45.33;;;;;-146.67;100.00;57155.34;5060034;28;62489;-80
2024/01/11 01:05:28;;;;;;;;;59.33;45.33;;;;;-146.67;100.00;57155.34;5060420;28;61738;-79
2024/01/11 01:07:54;;;;;;;;;64.33;42.33;;;;;-146.67;100.00;57155.34;5059175;28;61999;-80
2024/01/11 01:10:19;;;;;;;;;51.33;43.00;;;;;-146.67;100.00;57155.34;5061361;28;61726;-78
2024/01/11 01:12:44;;;;;;;;;55.67;45.33;;;;;-146.67;100.00;57155.34;5059493;28;62015;-78
2024/01/11 01:15:10;;;;;;;;;60.33;47.33;;;;;-146.67;100.00;57155.34;5061096;28;61982;-80
2024/01/11 01:17:35;;;;;;;;;56.00;45.67;;;;;-146.67;100.00;57155.34;5060425;28;61755;-80
2024/01/11 01:20:01;;;;;;;;;53.33;43.00;;;;;-146.67;100.00;57155.34;5061181;28;61794;-80
2024/01/11 01:22:26;;;;;;;;;60.67;47.33;;;;;-146.67;100.00;57155.34;5059811;28;61967;-79
2024/01/11 01:24:51;;;;;;;;;67.67;49.00;;;;;-146.67;100.00;57155.34;5059446;28;62047;-79
2024/01/11 01:27:17;;;;;;;;;58.00;40.33;;;;;-146.67;100.00;57155.34;5044000;28;62053;-79
2024/01/11 01:29:42;;;;;;;;;64.00;46.33;;;;;-146.67;100.00;57155.34;5064589;28;61794;-78
2024/01/11 01:32:08;;;;;;;;;47.00;40.00;;;;;-146.67;100.00;57155.34;5063153;28;62627;-78
2024/01/11 01:34:33;;;;;;;;;49.67;44.00;;;;;-146.67;100.00;57155.34;5063282;28;61826;-77
2024/01/11 01:36:59;;;;;;;;;68.00;51.00;;;;;-146.67;100.00;57155.34;5063943;28;62088;-78
2024/01/11 01:39:24;;;;;;;;;63.33;43.00;;;;;-146.67;100.00;57155.34;5064397;28;61991;-78
2024/01/11 01:41:49;;;;;;;;;80.00;51.67;;;;;-146.67;100.00;57155.34;5063229;28;61727;-79
2024/01/11 01:44:15;;;;;;;;;72.67;49.33;;;;;-146.67;100.00;57155.34;5063994;28;61758;-79
2024/01/11 01:46:40;;;;;;;;;46.00;36.00;;;;;-146.67;100.00;57155.34;5063220;28;62169;-79
2024/01/11 01:49:06;;;;;;;;;70.33;50.00;;;;;-146.67;100.00;57155.34;5062981;28;62044;-79
2024/01/11 01:51:33;;;;;;;;;61.00;40.67;;;;;-146.67;100.00;57155.34;5063011;28;63358;-79
2024/01/11 01:54:02;;;;;;;;;61.67;43.33;;;;;-146.67;100.00;57155.34;5062356;28;61889;-79
2024/01/11 01:56:28;;;;;;;;;56.67;46.00;;;;;-146.67;100.00;57155.34;5063877;28;62017;-79
2024/01/11 01:58:54;;;;;;;;;57.67;42.33;;;;;-146.67;100.00;57155.34;5045893;28;62010;-79
2024/01/11 02:01:21;;;;;;;;;61.67;44.00;;;;;-146.67;100.00;57155.34;5058805;28;63826;-79
2024/01/11 02:03:50;;;;;;;;;59.33;44.33;;;;;-146.67;100.00;57155.34;5063107;28;61847;-79
2024/01/11 02:06:15;;;;;;;;;58.00;46.00;;;;;-146.67;100.00;57155.34;5063425;28;62129;-79
2024/01/11 02:08:43;;;;;;;;;61.67;43.33;;;;;-146.67;100.00;57155.34;5063658;28;61988;-79
2024/01/11 02:11:10;;;;;;;;;53.00;44.33;;;;;-146.67;100.00;57155.34;5063700;28;62005;-79
2024/01/11 02:13:36;;;;;;;;;51.00;38.00;;;;;-146.67;100.00;57155.34;5064179;28;61999;-79
2024/01/11 02:16:02;;;;;;;;;50.67;42.00;;;;;-146.67;100.00;57155.34;5063791;28;62173;-79
2024/01/11 02:18:27;;;;;;;;;55.00;39.67;;;;;-146.67;100.00;57155.34;5046476;28;61743;-78
2024/01/11 02:20:53;;;;;;;;;60.67;46.33;;;;;-146.67;100.00;57155.34;5057446;28;63968;-79
2024/01/11 02:23:24;;;;;;;;;57.67;39.00;;;;;-146.67;100.00;57155.34;5063860;28;62298;-79
2024/01/11 02:25:49;;;;;;;;;66.00;43.00;;;;;-146.67;100.00;57155.34;5046262;28;62029;-79
2024/01/11 02:28:15;;;;;;;;;46.67;41.00;;;;;-146.67;100.00;57155.34;5037973;28;62195;-79
2024/01/11 02:30:40;;;;;;;;;39.33;38.67;;;;;-146.67;100.00;57155.34;5062944;28;61958;-79
2024/01/11 02:33:06;;;;;;;;;53.67;28.67;;;;;-146.67;100.00;57155.34;5063226;28;62241;-79
2024/01/11 02:35:32;;;;;;;;;51.67;41.33;;;;;-146.67;100.00;57155.34;5063301;28;62396;-79
2024/01/11 02:37:59;;;;;;;;;44.33;37.67;;;;;-146.67;100.00;57155.34;5062345;28;62174;-79
2024/01/11 02:40:25;;;;;;;;;48.67;37.67;;;;;-146.67;100.00;57155.34;5062568;28;61895;-79
2024/01/11 02:42:51;;;;;;;;;51.67;39.00;;;;;-146.67;100.00;57155.34;5064107;28;61811;-79
2024/01/11 02:45:16;;;;;;;;;70.00;46.00;;;;;-146.67;100.00;57155.34;5063359;28;61727;-80
2024/01/11 02:47:41;;;;;;;;;49.67;39.33;;;;;-146.67;100.00;57155.34;5063889;28;61771;-79
2024/01/11 02:50:07;;;;;;;;;52.67;42.33;;;;;-146.67;100.00;57155.34;5062849;28;61782;-79
2024/01/11 02:52:34;;;;;;;;;56.67;45.33;;;;;-146.67;100.00;57155.34;5063188;28;62306;-79
2024/01/11 02:54:59;;;;;;;;;53.67;42.33;;;;;-146.67;100.00;57155.34;5063751;28;61949;-79
2024/01/11 02:57:25;;;;;;;;;54.33;43.33;;;;;-146.67;100.00;57155.34;5045972;28;62006;-79
2024/01/11 02:59:51;;;;;;;;;42.67;32.33;;;;;-146.67;100.00;57155.34;5063183;28;62690;-79
2024/01/11 03:02:16;;;;;;;;;54.67;39.67;;;;;-146.67;100.00;57155.34;5063205;28;62173;-79
2024/01/11 03:04:42;;;;;;;;;61.67;39.33;;;;;-146.67;100.00;57155.34;5044719;28;62118;-79
2024/01/11 03:07:07;;;;;;;;;62.67;41.33;;;;;-146.67;100.00;57155.34;5063562;28;61968;-79
2024/01/11 03:09:34;;;;;;;;;61.33;43.67;;;;;-146.67;100.00;57155.34;5062786;28;61786;-79
2024/01/11 03:11:59;;;;;;;;;62.00;48.33;;;;;-146.67;100.00;57155.34;5063381;28;62049;-79
2024/01/11 03:14:24;;;;;;;;;51.67;39.00;;;;;-146.67;100.00;57155.34;5063550;28;62490;-79
2024/01/11 03:16:50;;;;;;;;;59.00;44.33;;;;;-146.67;100.00;57155.34;5061809;28;62392;-79
2024/01/11 03:19:15;;;;;;;;;56.33;45.67;;;;;-146.67;100.00;57155.34;5043820;28;63577;-79
2024/01/11 03:21:45;;;;;;;;;62.33;45.33;;;;;-146.67;100.00;57155.34;5063165;28;62018;-79
2024/01/11 03:24:10;;;;;;;;;56.67;42.33;;;;;-146.67;100.00;57155.34;5045114;28;61830;-79
2024/01/11 03:26:35;;;;;;;;;64.00;40.33;;;;;-146.67;100.00;57155.34;5045166;28;61765;-79
2024/01/11 03:29:01;;;;;;;;;52.33;44.67;;;;;-146.67;100.00;57155.34;5058093;28;63519;-79
2024/01/11 03:31:26;;;;;;;;;61.67;42.67;;;;;-146.67;100.00;57155.34;5042470;28;61732;-79
2024/01/11 03:33:51;;;;;;;;;56.33;42.67;;;;;-146.67;100.00;57155.34;5042310;28;61878;-79
2024/01/11 03:36:17;;;;;;;;;50.00;42.00;;;;;-146.67;100.00;57155.34;5049101;28;62051;-79
2024/01/11 03:38:42;;;;;;;;;61.00;39.33;;;;;-146.67;100.00;57155.34;5062612;28;61826;-79
2024/01/11 03:41:11;;;;;;;;;47.67;37.67;;;;;-146.67;100.00;57155.34;5062761;28;62045;-79
2024/01/11 03:43:37;;;;;;;;;51.33;40.67;;;;;-146.67;100.00;57155.34;5063129;28;61730;-79
2024/01/11 03:46:03;;;;;;;;;40.67;33.67;;;;;-146.67;100.00;57155.34;5061570;28;62017;-79
2024/01/11 03:48:28;;;;;;;;;49.33;36.33;;;;;-146.67;100.00;57155.34;5061422;28;62951;-79
2024/01/11 03:50:54;;;;;;;;;53.33;43.33;;;;;-146.67;100.00;57155.34;5061148;28;62074;-79
2024/01/11 03:53:21;;;;;;;;;58.00;44.33;;;;;-146.67;100.00;57155.34;5062415;28;61903;-79
2024/01/11 03:55:47;;;;;;;;;45.67;38.67;;;;;-146.67;100.00;57155.34;5063050;28;61929;-79
2024/01/11 03:58:12;;;;;;;;;47.33;39.33;;;;;-146.67;100.00;57155.34;5062077;28;61995;-79
2024/01/11 04:00:37;;;;;;;;;60.67;40.67;;;;;-146.67;100.00;57155.34;5062507;28;61690;-79
2024/01/11 04:03:03;;;;;;;;;51.67;43.67;;;;;-146.67;100.00;57155.34;5061744;28;62013;-79
2024/01/11 04:05:28;;;;;;;;;59.67;40.67;;;;;-146.67;100.00;57155.34;5061980;28;62099;-79
2024/01/11 04:07:54;;;;;;;;;49.67;35.33;;;;;-146.67;100.00;57155.34;5043709;28;63926;-79
2024/01/11 04:10:19;;;;;;;;;68.67;40.67;;;;;-146.67;100.00;57155.34;5052191;28;61763;-79
2024/01/11 04:12:45;;;;;;;;;60.33;40.67;;;;;-146.67;100.00;57155.34;5061088;28;62105;-79
2024/01/11 04:15:14;;;;;;;;;44.67;36.33;;;;;-146.67;100.00;57155.34;5062409;28;62036;-78
2024/01/11 04:17:39;;;;;;;;;44.33;33.33;;;;;-146.67;100.00;57155.34;5060721;28;61809;-79
2024/01/11 04:20:06;;;;;;;;;49.00;40.67;;;;;-146.67;100.00;57155.34;5044303;28;62017;-79
2024/01/11 04:22:32;;;;;;;;;53.33;45.00;;;;;-146.67;100.00;57155.34;5062347;28;62150;-79
2024/01/11 04:24:57;;;;;;;;;41.67;34.67;;;;;-146.67;100.00;57155.34;5062768;28;61730;-79
2024/01/11 04:27:22;;;;;;;;;43.33;37.67;;;;;-146.67;100.00;57155.34;5049785;28;61752;-79
2024/01/11 04:29:48;;;;;;;;;57.33;40.67;;;;;-146.67;100.00;57155.34;5061076;28;61970;-79
2024/01/11 04:32:13;;;;;;;;;60.67;40.00;;;;;-146.67;100.00;57155.34;5057157;28;62532;-79
2024/01/11 04:34:38;;;;;;;;;51.67;37.00;;;;;-146.67;100.00;57155.34;5041335;28;62022;-78
2024/01/11 04:37:04;;;;;;;;;53.33;45.00;;;;;-146.67;100.00;57155.34;5023751;28;63528;-79
2024/01/11 04:39:30;;;;;;;;;54.33;40.00;;;;;-146.67;100.00;57155.34;5043483;28;61672;-78
2024/01/11 04:41:56;;;;;;;;;56.67;39.00;;;;;-146.67;100.00;57155.34;5062115;28;61856;-79
2024/01/11 04:44:21;;;;;;;;;58.67;48.33;;;;;-146.67;100.00;57155.34;5062430;28;61742;-79
2024/01/11 04:46:47;;;;;;;;;57.67;44.33;;;;;-146.67;100.00;57155.34;5060643;28;61998;-79
2024/01/11 04:49:12;;;;;;;;;56.00;39.00;;;;;-146.67;100.00;57155.34;5044083;28;62100;-79
2024/01/11 04:51:37;;;;;;;;;61.00;47.33;;;;;-146.67;100.00;57155.34;5043355;28;61912;-79
2024/01/11 04:54:03;;;;;;;;;51.00;41.33;;;;;-146.67;100.00;57155.34;5061815;28;61723;-80
2024/01/11 04:56:29;;;;;;;;;43.67;40.67;;;;;-146.67;100.00;57155.34;5061325;28;61838;-78
2024/01/11 04:58:54;;;;;;;;;47.67;35.33;;;;;-146.67;100.00;57155.34;5061405;28;61972;-79
2024/01/11 05:01:21;;;;;;;;;48.33;36.33;;;;;-146.67;100.00;57155.34;5061029;28;61968;-79
2024/01/11 05:03:47;;;;;;;;;67.00;42.00;;;;;-146.67;100.00;57155.34;5064330;28;61917;-79
2024/01/11 05:06:22;;;;;;;;;49.00;38.33;;;;;-146.67;100.00;57155.34;5064701;28;62625;-79
2024/01/11 05:08:49;;;;;;;;;35.33;22.67;;;;;-146.67;100.00;57155.34;5065003;28;62060;-79
2024/01/11 05:11:26;;;;;;;;;57.00;40.67;;;;;-146.67;100.00;57155.34;5065376;28;61899;-79
2024/01/11 05:13:53;;;;;;;;;50.00;39.00;;;;;-146.67;100.00;57155.34;5063374;28;61797;-79
2024/01/11 05:16:24;;;;;;;;;37.33;30.33;;;;;-146.67;100.00;57155.34;5058800;28;63663;-79
2024/01/11 05:18:54;;;;;;;;;43.67;35.33;;;;;-146.67;100.00;57155.34;5044500;28;62012;-79
2024/01/11 05:21:20;;;;;;;;;45.67;38.33;;;;;-146.67;100.00;57155.34;5056151;28;61816;-79
2024/01/11 05:23:45;;;;;;;;;41.67;41.33;;;;;-146.67;100.00;57155.34;5065257;28;61861;-79
2024/01/11 05:26:12;;;;;;;;;50.33;39.67;;;;;-146.67;100.00;57155.34;5046360;28;64864;-79
2024/01/11 05:28:40;;;;;;;;;44.33;36.67;;;;;-146.67;100.00;57155.34;5064634;28;61782;-79
2024/01/11 05:31:07;;;;;;;;;51.67;36.33;;;;;-146.67;100.00;57155.34;5064524;28;61883;-79
2024/01/11 05:33:33;;;;;;;;;56.33;39.67;;;;;-146.67;100.00;57155.34;5046165;28;62339;-79
2024/01/11 05:35:59;;;;;;;;;45.67;39.33;;;;;-146.67;100.00;57155.34;5063934;28;61916;-79
2024/01/11 05:38:24;;;;;;;;;43.33;29.00;;;;;-146.67;100.00;57155.34;5046982;28;61907;-79
2024/01/11 05:40:49;;;;;;;;;54.00;42.00;;;;;-146.67;100.00;57155.34;5046286;28;61834;-79
2024/01/11 05:43:15;;;;;;;;;44.67;38.00;;;;;-146.67;100.00;57155.34;5064535;28;62001;-79
2024/01/11 05:45:40;;;;;;;;;58.00;45.00;;;;;-146.67;100.00;57155.34;5063062;28;64761;-79
2024/01/11 05:48:06;;;;;;;;;45.33;38.33;;;;;-146.67;100.00;57155.34;5062961;28;61979;-79
2024/01/11 05:50:31;;;;;;;;;58.00;45.33;;;;;-146.67;100.00;57155.34;5065026;28;61778;-79
2024/01/11 05:52:57;;;;;;;;;66.67;49.00;;;;;-146.67;100.00;57155.34;5064557;28;61857;-79
2024/01/11 05:55:22;;;;;;;;;58.00;48.67;;;;;-146.67;100.00;57155.34;5064079;28;62596;-79
2024/01/11 05:57:48;;;;;;;;;60.67;45.67;;;;;-146.67;100.00;57155.34;5064480;28;61906;-79
2024/01/11 06:00:14;;;;;;;;;65.67;45.00;;;;;-146.67;100.00;57155.34;5064501;28;62141;-79
2024/01/11 06:02:40;;;;;;;;;50.67;35.33;;;;;-146.67;100.00;57155.34;5063987;28;62014;-79
2024/01/11 06:05:09;;;;;;;;;70.00;49.00;;;;;-146.67;100.00;57155.34;5063480;28;61762;-79
2024/01/11 06:07:34;;;;;;;;;70.67;49.67;;;;;-146.67;100.00;57155.34;5064227;28;61806;-80
2024/01/11 06:10:02;;;;;;;;;62.00;40.67;;;;;-146.67;100.00;57155.34;5063110;28;61880;-79
2024/01/11 06:12:28;;;;;;;;;55.00;38.33;;;;;-146.67;100.00;57155.34;5063793;28;62030;-79
2024/01/11 06:14:53;;;;;;;;;61.33;42.67;;;;;-146.67;100.00;57155.34;5062280;28;63648;-79
2024/01/11 06:17:18;;;;;;;;;59.67;42.67;;;;;-146.67;100.00;57155.34;5061809;28;62179;-80
2024/01/11 06:19:44;;;;;;;;;55.33;43.00;;;;;-146.67;100.00;57155.34;5063877;28;61805;-80
2024/01/11 06:22:09;;;;;;;;;49.67;35.33;;;;;-146.67;100.00;57155.34;5061859;28;61880;-79
2024/01/11 06:24:34;;;;;;;;;52.33;46.00;;;;;-146.67;100.00;57155.34;5043605;28;64812;-79
2024/01/11 06:27:00;;;;;;;;;43.33;36.33;;;;;-146.67;100.00;57155.34;5061847;28;62173;-79
2024/01/11 06:29:25;;;;;;;;;40.33;37.33;;;;;-146.67;100.00;57155.34;5045508;28;61950;-79
2024/01/11 06:31:50;;;;;;;;;56.00;43.33;;;;;-146.67;100.00;57155.34;5063546;28;61976;-79
2024/01/11 06:34:16;;;;;;;;;42.67;42.00;;;;;-146.67;100.00;57155.34;5062442;28;61850;-77
2024/01/11 06:36:48;;;;;;;;;57.33;40.67;;;;;-146.67;100.00;57155.34;5062841;28;62065;-77
2024/01/11 06:39:13;;;;;;;;;58.33;45.00;;;;;-146.67;100.00;57155.34;5059121;28;61903;-77
2024/01/11 06:41:39;;;;;;;;;48.67;40.67;;;;;-146.67;100.00;57155.34;5063070;28;61722;-77
2024/01/11 06:44:04;;;;;;;;;54.33;45.33;;;;;-146.67;100.00;57155.34;5061345;28;65188;-77
2024/01/11 06:46:30;;;;;;;;;53.33;44.33;;;;;-146.67;100.00;57155.34;5055352;28;62745;-79
2024/01/11 06:48:56;;;;;;;;;56.67;46.67;;;;;-146.67;100.00;57155.34;5042147;28;62084;-80
2024/01/11 06:51:23;;;;;;;;;62.33;51.00;;;;;-146.67;100.00;57155.34;5060503;28;61948;-79
2024/01/11 06:53:49;;;;;;;;;67.67;46.00;;;;;-146.67;100.00;57155.34;5061400;28;62403;-79
2024/01/11 06:56:23;;;;;;;;;61.33;48.67;;;;;-146.67;100.00;57155.34;5043586;28;62005;-79
2024/01/11 06:58:49;;;;;;;;;59.67;46.33;;;;;-146.67;100.00;57155.34;5059833;28;61960;-80
2024/01/11 07:01:15;;;;;;;;;62.67;48.67;;;;;-146.67;100.00;57155.34;5043868;28;61952;-79
2024/01/11 07:03:40;;;;;;;;;67.67;52.00;;;;;-146.67;100.00;57155.34;5060893;28;61771;-77
2024/01/11 07:06:06;;;;;;;;;48.00;34.00;;;;;-146.67;100.00;57155.34;5045875;28;61838;-79
2024/01/11 07:08:35;;;;;;;;;55.00;46.00;;;;;-146.67;100.00;57155.34;5058667;28;62067;-79
2024/01/11 07:11:04;;;;;;;;;58.67;47.00;;;;;-146.67;100.00;57155.34;5062137;28;61838;-79
2024/01/11 07:13:33;;;;;;;;;59.33;42.67;;;;;-146.67;100.00;57155.34;5059571;28;64095;-79
2024/01/11 07:15:59;;;;;;;;;63.33;48.00;;;;;-146.67;100.00;57155.34;5062350;28;61903;-79
2024/01/11 07:18:25;;;;;;;;;59.00;40.33;;;;;-146.67;100.00;57155.34;5062151;28;62121;-80
2024/01/11 07:20:51;;;;;;;;;60.00;48.00;;;;;-146.67;100.00;57155.34;5054704;28;62118;-80
2024/01/11 07:23:17;;;;;;;;;60.67;44.33;;;;;-146.67;100.00;57155.34;5061578;28;62687;-80
2024/01/11 07:25:43;;;;;;;;;61.33;49.67;;;;;-146.67;100.00;57155.34;5061852;28;62005;-79
2024/01/11 07:28:08;;;;;;;;;58.33;48.00;;;;;-146.67;100.00;57155.34;5061345;28;61918;-79
2024/01/11 07:30:34;;;;;;;;;56.33;45.00;;;;;-146.67;100.00;57155.34;5061694;28;61961;-79
2024/01/11 07:32:59;;;;;;;;;70.00;51.67;;;;;-146.67;100.00;57155.34;5043402;28;63691;-80
2024/01/11 07:35:25;;;;;;;;;63.67;49.00;;;;;-146.67;100.00;57155.34;5062028;28;61822;-79
2024/01/11 07:37:50;;;;;;;;;75.33;58.00;;;;;-146.67;100.00;57155.34;5061103;28;61850;-79
2024/01/11 07:40:16;;;;;;;;;67.67;52.33;;;;;-146.67;100.00;57155.34;5062386;28;61723;-80
2024/01/11 07:42:42;;;;;;;;;69.67;48.67;;;;;-146.67;100.00;57155.34;5043346;28;63925;-79
2024/01/11 07:45:10;;;;;;;;;66.33;48.00;;;;;-146.67;100.00;57155.34;5044382;28;61779;-80
2024/01/11 07:47:37;;;;;;;;;60.33;45.67;;;;;-146.67;100.00;57155.34;5061582;28;61870;-78
2024/01/11 07:50:03;;;;;;;;;74.33;52.00;;;;;-146.67;100.00;57155.34;5044000;28;61803;-79
2024/01/11 07:52:29;;;;;;;;;62.33;45.33;;;;;-146.67;100.00;57155.34;5060737;28;61775;-79
2024/01/11 07:54:54;;;;;;;;;57.00;48.00;;;;;-146.67;100.00;57155.34;5060159;28;61827;-79
2024/01/11 07:57:19;;;;;;;;;53.00;47.33;;;;;-146.67;100.00;57155.34;5059805;28;62001;-79
2024/01/11 07:59:45;;;;;;;;;55.33;44.33;;;;;-146.67;100.00;57155.34;5061328;28;61987;-79
2024/01/11 08:02:10;;;;;;;;;53.67;42.67;;;;;-146.67;100.00;57155.34;5045049;28;63694;-80
2024/01/11 08:04:37;;;;;;;;;60.00;48.00;;;;;-146.67;100.00;57155.34;5039956;28;61821;-82
2024/01/11 08:07:02;;;;;;;;;61.00;48.33;;;;;-146.67;100.00;57155.34;5042807;28;61861;-80
2024/01/11 08:09:29;;;;;;;;;60.33;41.33;;;;;-146.67;100.00;57155.34;5043844;28;62093;-80
2024/01/11 08:11:54;;;;;;;;;57.67;46.00;;;;;-146.67;100.00;57155.34;5062080;28;61882;-79
2024/01/11 08:14:24;;;;;;;;;51.33;44.33;;;;;-146.67;100.00;57155.34;5044502;28;61954;-79
2024/01/11 08:16:49;;;;;;;;;67.67;48.00;;;;;-146.67;100.00;57155.34;5062043;28;61885;-79
2024/01/11 08:19:15;;;;;;;;;41.67;30.00;;;;;-146.67;100.00;57155.34;5062917;28;62545;-80
2024/01/11 08:21:41;;;;;;;;;42.67;34.67;;;;;-146.67;100.00;57155.34;5061608;28;62778;-79
2024/01/11 08:24:07;;;;;;;;;59.33;45.00;;;;;-146.67;100.00;57155.34;5061768;28;62013;-80
2024/01/11 08:26:33;;;;;;;;;56.00;40.67;;;;;-146.67;100.00;57155.34;5043468;28;61885;-80
2024/01/11 08:28:58;;;;;;;;;62.33;45.33;;;;;-146.67;100.00;57155.34;5051901;28;61762;-76
2024/01/11 08:31:24;;;;;;;;;57.00;45.00;;;;;-146.67;100.00;57155.34;5060465;28;61921;-76
2024/01/11 08:33:50;;;;;;;;;63.00;42.33;;;;;-146.67;100.00;57155.34;5056296;28;62010;-76
2024/01/11 08:36:16;;;;;;;;;59.67;42.33;;;;;-146.67;100.00;57155.34;5023493;28;61910;-76
2024/01/11 08:38:41;;;;;;;;;63.00;46.67;;;;;-146.67;100.00;57155.34;5041363;28;61741;-76
2024/01/11 08:41:06;;;;;;;;;73.33;53.67;;;;;-146.67;100.00;57155.34;5056697;28;62468;-76
2024/01/11 08:43:32;;;;;;;;;73.67;58.67;;;;;-146.67;100.00;57155.34;5061972;28;62174;-76
2024/01/11 08:45:57;;;;;;;;;81.33;59.33;;;;;-146.67;100.00;57155.34;5061831;28;61803;-76
2024/01/11 08:48:23;;;;;;;;;60.33;37.67;;;;;-146.67;100.00;57155.34;5043774;28;62076;-76
2024/01/11 08:50:48;;;;;;;;;76.67;57.00;;;;;-146.67;100.00;57155.34;5060383;28;62726;-76
2024/01/11 08:53:15;;;;;;;;;89.67;65.67;;;;;-146.67;100.00;57155.34;5042844;28;62093;-76
2024/01/11 08:55:41;;;;;;;;;87.33;63.67;;;;;-146.67;100.00;57155.34;5061897;28;61917;-76
2024/01/11 08:58:06;;;;;;;;;73.00;56.00;;;;;-146.67;100.00;57155.34;5061636;28;62097;-76
2024/01/11 09:00:32;;;;;;;;;76.67;56.00;;;;;-146.67;100.00;57155.34;5059477;28;63668;-76
2024/01/11 09:02:57;;;;;;;;;100.75;72.50;;;;;-146.67;100.00;57155.34;5060824;28;62176;-76
2024/01/11 09:05:23;;;;;;;;;75.33;57.00;;;;;-146.67;100.00;57155.34;5061456;28;61969;-76
2024/01/11 09:07:48;;;;;;;;;77.00;58.00;;;;;-146.67;100.00;57155.34;5061374;28;61993;-75
2024/01/11 09:10:15;;;;;;;;;75.67;54.00;;;;;-146.67;100.00;57155.34;5061240;28;61734;-76
2024/01/11 09:12:40;;;;;;;;;66.67;53.33;;;;;-146.67;100.00;57155.34;5043378;28;61722;-76
2024/01/11 09:15:06;;;;;;;;;51.33;31.00;;;;;-146.67;100.00;57155.34;5061509;28;61871;-75
2024/01/11 09:17:32;;;;;;;;;81.33;58.67;;;;;-146.67;100.00;57155.34;5061400;28;62069;-76
2024/01/11 09:19:57;;;;;;;;;76.00;58.67;;;;;-146.67;100.00;57155.34;5060931;28;61880;-76
2024/01/11 09:22:23;;;;;;;;;76.67;56.33;;;;;-146.67;100.00;57155.34;5061197;28;62414;-76
2024/01/11 09:24:48;;;;;;;;;83.67;59.33;;;;;-146.67;100.00;57155.34;5043195;28;61955;-75
2024/01/11 09:27:14;;;;;;;;;66.33;49.67;;;;;-146.67;100.00;57155.34;5061294;28;61912;-76
2024/01/11 09:29:44;;;;;;;;;63.00;50.67;;;;;-146.67;100.00;57155.34;5059619;28;62774;-80
2024/01/11 09:32:09;;;;;;;;;71.00;54.67;;;;;-146.67;100.00;57155.34;5059417;28;61965;-81
2024/01/11 09:34:35;;;;;;;;;50.33;47.33;;;;;-146.67;100.00;57155.34;5059904;28;61989;-81
2024/01/11 09:37:00;;;;;;;;;71.67;51.33;;;;;-146.67;100.00;57155.34;5041273;28;61850;-81
2024/01/11 09:39:26;;;;;;;;;57.33;43.33;;;;;-146.67;100.00;57155.34;5058324;28;62144;-81
2024/01/11 09:41:58;;;;;;;;;65.00;48.00;;;;;-146.67;100.00;57155.34;5060169;28;61893;-81
2024/01/11 09:44:25;;;;;;;;;58.00;43.67;;;;;-146.67;100.00;57155.34;5060614;28;61776;-81
2024/01/11 09:46:53;;;;;;;;;65.33;46.00;;;;;-146.67;100.00;57155.34;5059903;28;61924;-81
2024/01/11 09:49:21;;;;;;;;;57.00;44.33;;;;;-146.67;100.00;57155.34;5062883;28;61786;-81
2024/01/11 09:51:48;;;;;;;;;57.00;45.00;;;;;-146.67;100.00;57155.34;5046804;28;61779;-81
2024/01/11 09:54:14;;;;;;;;;47.00;42.33;;;;;-146.67;100.00;57155.34;5064405;28;62115;-81
2024/01/11 09:56:41;;;;;;;;;61.33;46.33;;;;;-146.67;100.00;57155.34;5065016;28;61711;-81
2024/01/11 09:59:09;;;;;;;;;57.33;45.33;;;;;-146.67;100.00;57155.34;5063947;28;61809;-81
2024/01/11 10:01:35;;;;;;;;;53.67;44.00;;;;;-146.67;100.00;57155.34;5063159;28;62075;-81
2024/01/11 10:04:02;;;;;;;;;52.67;40.67;;;;;-146.67;100.00;57155.34;5045381;28;61800;-81
2024/01/11 10:06:33;;;;;;;;;59.33;44.33;;;;;-146.67;100.00;57155.34;5063189;28;61882;-81
2024/01/11 10:08:59;;;;;;;;;44.00;36.67;;;;;-146.67;100.00;57155.34;5064083;28;61952;-81
2024/01/11 10:11:24;;;;;;;;;65.00;47.33;;;;;-146.67;100.00;57155.34;5046279;28;61930;-82
2024/01/11 10:13:57;;;;;;;;;58.33;39.67;;;;;-146.67;100.00;57155.34;5064465;28;61929;-82
2024/01/11 10:16:22;;;;;;;;;57.00;39.67;;;;;-146.67;100.00;57155.34;5046303;28;61875;-81
2024/01/11 10:18:47;;;;;;;;;64.33;44.33;;;;;-146.67;100.00;57155.34;5063179;28;62047;-81
2024/01/11 10:21:13;;;;;;;;;63.00;46.33;;;;;-146.67;100.00;57155.34;5064136;28;61793;-81
2024/01/11 10:23:39;;;;;;;;;65.00;46.33;;;;;-146.67;100.00;57155.34;5046225;28;61846;-82
2024/01/11 10:26:07;;;;;;;;;46.67;43.33;;;;;-146.67;100.00;57155.34;5062992;28;61878;-82
2024/01/11 10:28:36;;;;;;;;;58.00;47.00;;;;;-146.67;100.00;57155.34;5063628;28;62044;-82
2024/01/11 10:31:01;;;;;;;;;61.33;44.33;;;;;-146.67;100.00;57155.34;5064366;28;61972;-82
2024/01/11 10:33:27;;;;;;;;;60.00;43.00;;;;;-146.67;100.00;57155.34;5044257;28;61927;-82
2024/01/11 10:35:52;;;;;;;;;53.67;45.00;;;;;-146.67;100.00;57155.34;5063283;28;61894;-82
2024/01/11 10:38:18;;;;;;;;;61.67;45.33;;;;;-146.67;100.00;57155.34;5045166;28;65030;-81
2024/01/11 10:40:44;;;;;;;;;62.67;45.00;;;;;-146.67;100.00;57155.34;5063877;28;61937;-82
2024/01/11 10:43:15;;;;;;;;;49.00;34.33;;;;;-146.67;100.00;57155.34;5063811;28;61937;-81
2024/01/11 10:45:41;;;;;;;;;62.67;47.67;;;;;-146.67;100.00;57155.34;5064323;28;62052;-82
2024/01/11 10:48:13;;;;;;;;;62.33;46.67;;;;;-146.67;100.00;57155.34;5044634;28;64847;-81
2024/01/11 10:50:43;;;;;;;;;54.00;38.67;;;;;-146.67;100.00;57155.34;5063835;28;62162;-81